Řízení letového provozu České republiky  
Aktualizace dat:  21.10.2021 12:24:29 UTC English version
   METEO Zobrazení stránky:  21.10.2021 12:25:52 UTC  
vysvětlivky
METAR EDDB 211220Z 26029G39KT 9999 BKN026 13/07 Q0996 NOSIG=
METAR EDDC 211220Z 28025G42KT 230V310 9999 FEW038 13/05 Q1001 NOSIG=
METAR EDDE 211220Z 25030G41KT 9999 -SHRA FEW030 BKN043 12/03 Q1003 NOSIG=
METAR EDDF 211220Z 23021G32KT 200V260 9999 FEW032 15/06 Q1008 NOSIG=
METAR EDDM 211220Z 27021G34KT 9999 FEW047 16/04 Q1011 NOSIG=
METAR EDDN 211220Z 26019G31KT 9999 SCT043 13/04 Q1010 NOSIG=
METAR EDDP 211220Z 25037G49KT 9999 SCT036 13/06 Q1000 NOSIG=
METAR EDQM NIL
METAR EPBY 211200Z 25028G41KT 9999 SCT030 16/09 Q0989=
METAR EPGD 211200Z 23020G31KT 9999 FEW031CB BKN036 16/08 Q0984=
METAR EPKK 211200Z 20014G24KT 9999 SCT065 16/08 Q1003=
METAR EPKT 211200Z 21019KT CAVOK 15/08 Q1001=
METAR EPLL 211200Z 21015G28KT 180V240 9999 FEW026 15/09 Q0996=
METAR EPPO 211200Z 24019KT CAVOK 16/06 Q0992=
METAR EPRZ 211200Z 20019KT CAVOK 15/07 Q1004=
METAR EPWA 211200Z 20013KT 170V230 CAVOK 15/10 Q0995 NOSIG=
METAR EPWR 211200Z 25023G41KT 220V280 CAVOK 19/04 Q0998=
METAR LHBP 211200Z 23020KT 9999 FEW044 BKN060 19/08 Q1009 NOSIG=
METAR LHSM 211145Z AUTO 24016KT CAVOK 20/10 Q1010 NOSIG=
SPECI LKBC 211220Z AUTO 24022KT 9999 BKN061 16/02 Q1007=
METAR LKCV 211200Z 26027G44KT CAVOK 17/04 Q1004 NOSIG RMK BLU BLU=
METAR LKKB 211200Z 25032G45KT 220V280 9999 BKN048 16/04 Q1003 NOSIG RMK BLU BLU=
METAR LKKU 211200Z 21007KT 9999 -RA FEW042 16/08 Q1006=
METAR LKKV 211200Z 25016G29KT 220V290 9999 BKN020 09/05 Q1005 RMK REG QNH 0999=
METAR LKLN 211230Z AUTO 27016G34KT 230V310 9999 -RA BKN046 11/06 Q1008=
METAR LKMT 211200Z 21023G34KT CAVOK 15/09 Q1003 TEMPO 20020G41KT RMK REG QNH 0999=
METAR COR LKNA 211200Z 25019G30KT 220V280 9999 FEW047 SCT080 BKN230 15/04 Q1006 NOSIG RMK BLU BLU=
METAR LKPD 211200Z 26029G41KT 9999 SCT042 BKN220 17/04 Q1003 NOSIG RMK BLU BLU=
METAR LKPJ 211200Z AUTO 16008KT 9999 BKN100/// 14/10 Q1005=
METAR LKPR 211200Z 25037G48KT 9999 SCT040 15/05 Q1004 NOSIG RMK REG QNH 0999=
METAR LKTB 211200Z 21008KT CAVOK 13/09 Q1006 NOSIG RMK REG QNH 0999=
METAR LKVO NIL
METAR LOWI 211150Z 23013KT 190V270 9999 FEW040 SCT050 BKN065 14/06 Q1010 NOSIG=
METAR LOWL 211150Z 26013KT 9999 -SHRA FEW040 BKN070 15/06 Q1010 NOSIG=
METAR LOWS 211150Z 28013G23KT 210V310 9999 -SHRA FEW060 BKN070 14/03 Q1012 NOSIG=
METAR LOWW 211150Z 28024G36KT CAVOK 19/06 Q1008 NOSIG=
METAR LZIB 211200Z 30007KT 270V330 CAVOK 18/10 Q1008 NOSIG=
METAR LZKZ 211200Z 24007KT 9999 SCT038 BKN045 13/08 Q1008 NOSIG=
METAR LZMC NIL
METAR LZPP 211200Z 17003KT 140V220 9999 FEW038 18/09 Q1007=
METAR LZSL NIL
METAR LZTT 211200Z 23022KT 9999 SCT026 13/07 Q1007 NOSIG=
METAR LZZI 211200Z VRB01KT 9999 FEW030 13/10 Q1007=